Time;durP1;ratioP1;P1;durP2;ratioP2;P2;SDS_P1;SDS_P2;PMS_P1;PMS_P2;Temp;Humidity;BMP_temperature;BMP_pressure;BME280_temperature;BME280_humidity;BME280_pressure;Samples;Min_cycle;Max_cycle;Signal;HPM_P1;HPM_P2
2022/09/18 00:01:26;;;;;;;8.70;3.60;;;;;;;10.49;76.60;95980.41;1711786;83;25984;-86
2022/09/18 00:03:59;;;;;;;8.08;3.72;;;;;;;10.51;76.64;95976.38;1711376;82;25887;-86
2022/09/18 00:06:29;;;;;;;8.15;3.72;;;;;;;10.48;76.58;95977.43;1711838;83;27415;-85
2022/09/18 00:08:59;;;;;;;4.35;3.27;;;;;;;10.49;76.62;95976.37;1711825;83;25682;-85
2022/09/18 00:11:29;;;;;;;5.42;2.60;;;;;;;10.53;76.65;95981.54;1711968;83;25754;-85
2022/09/18 00:13:56;;;;;;;5.70;3.25;;;;;;;10.50;76.55;95974.78;1711998;83;27334;-85
2022/09/18 00:16:24;;;;;;;4.45;2.27;;;;;;;10.46;76.54;95975.79;1712063;83;25666;-85
2022/09/18 00:18:51;;;;;;;2.60;2.30;;;;;;;10.46;76.67;95973.62;1711949;83;28532;-85
2022/09/18 00:21:23;;;;;;;4.47;2.30;;;;;;;10.38;76.87;95972.69;1711888;83;25675;-85
2022/09/18 00:23:51;;;;;;;;;;;;;;;10.27;76.95;95977.59;1714335;83;25729;-85
2022/09/18 00:26:18;;;;;;;2.85;1.67;;;;;;;10.18;77.32;95983.94;1711948;83;26838;-85
2022/09/18 00:28:45;;;;;;;2.65;1.52;;;;;;;10.11;77.25;95981.90;1711926;83;25220;-85
2022/09/18 00:31:19;;;;;;;2.42;1.75;;;;;;;10.10;77.38;95977.56;1711902;83;27424;-85
2022/09/18 00:33:46;;;;;;;1.62;1.40;;;;;;;10.07;77.26;95980.21;1712050;83;25745;-85
2022/09/18 00:36:17;;;;;;;2.30;1.90;;;;;;;10.07;77.25;95980.73;1711874;83;25699;-85
2022/09/18 00:38:45;;;;;;;2.83;1.57;;;;;;;10.08;77.39;95976.45;1712110;83;26063;-84
2022/09/18 00:41:24;;;;;;;2.27;1.45;;;;;;;10.06;77.46;95979.92;1711894;83;25766;-84
2022/09/18 00:44:02;;;;;;;3.47;1.62;;;;;;;10.05;77.45;95974.77;1711919;83;27370;-85
2022/09/18 00:46:35;;;;;;;2.45;1.57;;;;;;;10.04;77.51;95981.22;1697136;83;25892;-84
2022/09/18 00:49:18;;;;;;;2.02;1.45;;;;;;;10.03;77.55;95979.58;1712122;83;26465;-84
2022/09/18 00:51:49;;;;;;;1.77;1.27;;;;;;;10.02;77.69;95980.67;1711844;83;25689;-84
2022/09/18 00:54:27;;;;;;;2.95;1.30;;;;;;;9.98;77.68;95978.16;1711909;83;25672;-88
2022/09/18 00:56:58;;;;;;;1.32;1.07;;;;;;;10.00;77.76;95985.48;1711870;83;28203;-83
2022/09/18 00:59:29;;;;;;;1.70;1.37;;;;;;;10.00;77.75;95977.39;1712025;83;25882;-84
2022/09/18 01:01:57;;;;;;;3.17;1.32;;;;;;;10.01;77.80;95977.68;1711958;83;25743;-85
2022/09/18 01:04:24;;;;;;;3.47;1.50;;;;;;;9.99;77.83;95973.05;1704889;82;25945;-84
2022/09/18 01:07:39;;;;;;;3.40;1.95;;;;;;;10.01;77.84;95973.64;1703708;84;25374;-85
2022/09/18 01:10:13;;;;;;;4.25;1.70;;;;;;;10.01;77.86;95974.98;1636769;87;28255;-85
2022/09/18 01:13:03;;;;;;;2.40;1.70;;;;;;;10.01;77.81;95972.29;1636479;87;25799;-85
2022/09/18 01:15:53;;;;;;;4.20;1.90;;;;;;;9.98;77.80;95966.03;1686270;84;25725;-84
2022/09/18 01:18:36;;;;;;;4.35;1.67;;;;;;;9.95;77.90;95974.06;1703819;83;27012;-84
2022/09/18 01:21:16;;;;;;;2.22;2.00;;;;;;;9.89;78.09;95968.83;1703889;84;25748;-85
2022/09/18 01:24:08;;;;;;;4.83;1.90;;;;;;;9.82;78.24;95969.49;1703657;84;27431;-84
2022/09/18 01:26:50;;;;;;;;;;;;;;;9.79;78.31;95968.62;1706412;84;25884;-84
2022/09/18 01:29:40;;;;;;;2.90;2.42;;;;;;;9.72;78.54;95971.47;1672922;84;25699;-83
2022/09/18 01:32:27;;;;;;;2.80;2.50;;;;;;;9.67;78.50;95966.80;1698092;84;26348;-82
2022/09/18 01:35:08;;;;;;;4.28;3.05;;;;;;;9.66;78.55;95972.45;1697866;84;25513;-83
2022/09/18 01:38:05;;;;;;;5.92;3.20;;;;;;;9.58;78.71;95979.02;1698182;83;27525;-84
2022/09/18 01:40:39;;;;;;;4.97;3.27;;;;;;;9.56;78.85;95975.73;1698241;83;25727;-84
2022/09/18 01:43:10;;;;;;;5.95;3.77;;;;;;;9.57;78.96;95986.80;1698434;84;25250;-83
2022/09/18 01:45:41;;;;;;;4.55;3.33;;;;;;;9.52;78.92;95981.34;1698119;83;26009;-83
2022/09/18 01:48:13;;;;;;;5.80;3.72;;;;;;;9.50;78.97;95988.83;1698713;84;25695;-83
2022/09/18 01:50:48;;;;;;;5.20;3.95;;;;;;;9.49;79.08;95984.50;1680885;84;27429;-82
2022/09/18 01:53:22;;;;;;;6.53;4.35;;;;;;;9.49;79.13;95982.33;1697488;84;25769;-83
2022/09/18 01:56:00;;;;;;;8.23;3.77;;;;;;;9.47;79.18;95981.22;1698160;84;25756;-83
2022/09/18 01:58:29;;;;;;;6.17;4.10;;;;;;;9.39;79.31;95995.07;1698053;84;26049;-84
2022/09/18 02:01:01;;;;;;;5.97;4.00;;;;;;;9.36;79.31;95995.02;1698313;84;25774;-84
2022/09/18 02:03:44;;;;;;;7.50;4.00;;;;;;;9.41;79.26;95992.96;1698484;83;27438;-83
2022/09/18 02:06:16;;;;;;;6.62;3.62;;;;;;;9.43;79.21;95998.91;1698307;84;25793;-84
2022/09/18 02:08:47;;;;;;;7.80;3.50;;;;;;;9.47;79.21;95994.69;1698451;83;25741;-84
2022/09/18 02:11:16;;;;;;;4.50;3.27;;;;;;;9.49;79.14;95993.92;1698534;84;26155;-84
2022/09/18 02:14:09;;;;;;;7.50;3.50;;;;;;;9.46;79.17;95993.05;1698551;84;25860;-83
2022/09/18 02:16:47;;;;;;;7.90;3.85;;;;;;;9.43;79.26;95999.43;1698364;84;27911;-83
2022/09/18 02:19:25;;;;;;;7.15;3.80;;;;;;;9.37;79.36;96001.22;1698388;83;25694;-83
2022/09/18 02:21:53;;;;;;;6.62;4.03;;;;;;;9.37;79.35;95997.17;1698596;83;25801;-84
2022/09/18 02:24:24;;;;;;;7.80;4.03;;;;;;;9.33;79.43;95998.70;1698325;84;26006;-84
2022/09/18 02:26:53;;;;;;;5.85;3.70;;;;;;;9.30;79.47;96001.86;1698695;83;25665;-83
2022/09/18 02:29:22;;;;;;;5.45;3.67;;;;;;;9.32;79.53;96003.79;1698554;84;27378;-84
2022/09/18 02:31:50;;;;;;;8.68;4.28;;;;;;;9.30;79.45;96007.24;1697856;84;25770;-84
2022/09/18 02:34:18;;;;;;;6.42;3.90;;;;;;;9.32;79.57;96001.09;1680823;84;25746;-84
2022/09/18 02:36:55;;;;;;;5.60;3.45;;;;;;;9.31;79.64;96011.58;1698468;84;26847;-84
2022/09/18 02:39:56;;;;;;;7.30;4.15;;;;;;;9.29;79.67;96012.37;1698276;83;25766;-84
2022/09/18 02:43:07;;;;;;;6.45;3.87;;;;;;;9.30;79.70;96009.94;1698293;83;27414;-83
2022/09/18 02:46:06;;;;;;;7.08;4.15;;;;;;;9.25;79.81;96007.16;1699074;83;25727;-85
2022/09/18 02:48:57;;;;;;;7.72;3.92;;;;;;;9.24;79.91;96010.38;1698185;83;25810;-84
2022/09/18 02:51:44;;;;;;;6.45;4.03;;;;;;;9.26;79.90;96010.14;1698078;84;25992;-84
2022/09/18 02:54:27;;;;;;;6.97;4.45;;;;;;;9.26;79.83;96011.48;1669423;84;25803;-84
2022/09/18 02:56:58;;;;;;;8.83;4.10;;;;;;;9.28;79.86;96008.03;1698433;84;27379;-84
2022/09/18 02:59:38;;;;;;;6.85;4.37;;;;;;;9.30;79.78;96012.63;1698064;84;25898;-84
2022/09/18 03:02:06;;;;;;;7.22;4.17;;;;;;;9.28;79.89;96016.93;1695205;84;25702;-83
2022/09/18 03:04:33;;;;;;;5.95;4.00;;;;;;;9.26;80.08;96016.88;1698072;82;26005;-84
2022/09/18 03:07:00;;;;;;;7.60;4.45;;;;;;;9.22;79.97;96012.48;1698424;84;25485;-84
2022/09/18 03:09:28;;;;;;;8.58;4.50;;;;;;;9.21;79.90;96014.05;1698106;84;28184;-84
2022/09/18 03:11:55;;;;;;;6.35;4.97;;;;;;;9.25;79.93;96013.88;1698420;84;25738;-84
2022/09/18 03:14:22;;;;;;;7.78;4.65;;;;;;;9.29;79.88;96021.79;1698307;84;25770;-84
2022/09/18 03:16:48;;;;;;;6.55;4.37;;;;;;;9.29;79.75;96028.52;1698480;84;26788;-84
2022/09/18 03:19:15;;;;;;;7.22;4.60;;;;;;;9.26;79.70;96030.33;1697817;84;25328;-84
2022/09/18 03:21:42;;;;;;;6.65;3.90;;;;;;;9.25;79.71;96032.73;1698460;83;28789;-84
2022/09/18 03:24:09;;;;;;;8.58;4.87;;;;;;;9.22;79.65;96033.20;1698259;84;26413;-84
2022/09/18 03:26:36;;;;;;;10.20;4.72;;;;;;;9.23;79.64;96028.92;1698334;84;25739;-85
2022/09/18 03:29:08;;;;;;;8.65;4.40;;;;;;;9.20;79.58;96029.91;1698242;83;26402;-84
2022/09/18 03:31:35;;;;;;;9.43;5.15;;;;;;;9.23;79.72;96036.19;1698787;84;25261;-85
2022/09/18 03:34:02;;;;;;;8.20;3.70;;;;;;;9.23;79.66;96033.48;1698354;84;27417;-85
2022/09/18 03:36:28;;;;;;;7.17;4.55;;;;;;;9.20;79.61;96028.56;1698438;84;25807;-85
2022/09/18 03:38:55;;;;;;;7.62;4.40;;;;;;;9.18;79.64;96041.44;1698669;84;25783;-84
2022/09/18 03:41:23;;;;;;;6.47;4.42;;;;;;;9.14;79.72;96046.50;1698506;84;26654;-85
2022/09/18 03:43:50;;;;;;;6.78;4.25;;;;;;;9.03;79.67;96041.41;1698594;84;25711;-87
2022/09/18 03:46:22;;;;;;;5.37;4.08;;;;;;;9.04;79.79;96044.92;1698399;84;26864;-85
2022/09/18 03:48:49;;;;;;;10.68;5.08;;;;;;;9.03;79.75;96050.84;1697862;83;26344;-86
2022/09/18 03:51:19;;;;;;;6.55;4.37;;;;;;;9.02;79.80;96053.23;1698003;83;25804;-86
2022/09/18 03:53:46;;;;;;;7.37;5.25;;;;;;;9.00;79.87;96049.95;1698149;84;25998;-86
2022/09/18 03:56:13;;;;;;;13.25;5.10;;;;;;;8.97;80.00;96051.76;1698430;84;25699;-86
2022/09/18 03:58:41;;;;;;;7.45;4.95;;;;;;;8.96;79.94;96052.81;1698333;84;28204;-87
2022/09/18 04:01:09;;;;;;;6.85;5.05;;;;;;;9.00;79.85;96049.95;1698001;84;25264;-85
2022/09/18 04:03:35;;;;;;;14.38;5.15;;;;;;;9.02;79.72;96057.27;1698283;83;25739;-86
2022/09/18 04:06:02;;;;;;;10.75;5.72;;;;;;;9.01;79.72;96055.63;1698535;84;26693;-86
2022/09/18 04:08:28;;;;;;;10.08;5.47;;;;;;;9.05;79.66;96059.20;1697785;84;25317;-85
2022/09/18 04:10:56;;;;;;;6.35;5.10;;;;;;;9.06;79.64;96059.50;1698071;84;28323;-86
2022/09/18 04:13:22;;;;;;;8.88;6.15;;;;;;;9.05;79.51;96061.91;1698153;84;25868;-85
2022/09/18 04:15:49;;;;;;;10.30;6.30;;;;;;;8.95;79.53;96067.31;1698478;84;25683;-85
2022/09/18 04:18:18;;;;;;;11.85;6.60;;;;;;;8.91;79.69;96067.51;1698395;84;26112;-86
2022/09/18 04:20:45;;;;;;;9.95;6.62;;;;;;;8.89;79.69;96066.92;1697416;84;25740;-86
2022/09/18 04:23:13;;;;;;;9.63;6.50;;;;;;;8.88;79.87;96064.45;1698359;84;27467;-85
2022/09/18 04:25:42;;;;;;;8.38;6.83;;;;;;;8.86;79.89;96066.03;1689587;84;25767;-86
2022/09/18 04:28:12;;;;;;;8.85;6.37;;;;;;;8.86;79.92;96066.55;1698219;84;26353;-86
2022/09/18 04:30:38;;;;;;;10.82;7.00;;;;;;;8.88;79.94;96066.63;1698360;84;26694;-86
2022/09/18 04:33:06;;;;;;;10.82;7.25;;;;;;;8.93;79.97;96071.32;1698575;84;25912;-86
2022/09/18 04:35:33;;;;;;;10.32;6.08;;;;;;;8.94;79.99;96071.58;1698392;84;27381;-86
2022/09/18 04:38:00;;;;;;;14.03;6.45;;;;;;;8.92;79.93;96073.19;1698245;84;25881;-86
2022/09/18 04:40:26;;;;;;;8.58;6.60;;;;;;;8.93;80.03;96074.01;1698320;84;25671;-88
2022/09/18 04:42:54;;;;;;;9.88;5.78;;;;;;;8.96;80.02;96073.52;1698503;84;26706;-86
2022/09/18 04:45:21;;;;;;;11.90;6.08;;;;;;;8.96;79.92;96074.34;1698448;84;26338;-87
2022/09/18 04:47:49;;;;;;;9.58;6.03;;;;;;;8.97;79.82;96078.67;1678142;84;27428;-87
2022/09/18 04:50:16;;;;;;;11.03;6.00;;;;;;;8.95;79.91;96078.08;1698291;84;26398;-87
2022/09/18 04:52:43;;;;;;;12.00;6.50;;;;;;;8.92;79.86;96078.57;1698184;84;25735;-86
2022/09/18 04:55:09;;;;;;;10.72;5.85;;;;;;;8.92;79.99;96078.57;1698428;84;25849;-86
2022/09/18 04:57:36;;;;;;;12.85;5.33;;;;;;;8.95;79.96;96083.46;1698468;84;26287;-87
2022/09/18 05:00:05;;;;;;;12.45;4.60;;;;;;;8.96;79.80;96085.63;1698440;84;27404;-86
2022/09/18 05:02:32;;;;;;;11.63;4.97;;;;;;;8.98;79.76;96085.70;1697939;84;25994;-88
2022/09/18 05:04:59;;;;;;;11.80;5.65;;;;;;;9.01;79.83;96088.45;1698060;82;25732;-87
2022/09/18 05:07:26;;;;;;;9.98;4.80;;;;;;;9.00;79.79;96087.63;1698088;84;26862;-87
2022/09/18 05:09:53;;;;;;;9.08;4.50;;;;;;;9.03;79.76;96082.31;1698386;84;25672;-86
2022/09/18 05:12:19;;;;;;;7.35;4.53;;;;;;;9.07;79.85;96089.38;1698581;84;27431;-87
2022/09/18 05:14:46;;;;;;;7.62;4.03;;;;;;;9.07;79.67;96088.85;1698405;84;25768;-87
2022/09/18 05:17:13;;;;;;;9.90;4.28;;;;;;;9.09;79.56;96095.35;1698530;84;25774;-87
2022/09/18 05:19:39;;;;;;;8.03;3.65;;;;;;;9.08;79.42;96092.36;1698466;84;26678;-86
2022/09/18 05:22:06;;;;;;;8.05;3.45;;;;;;;9.05;79.37;96090.16;1698476;84;25880;-87
2022/09/18 05:24:32;;;;;;;9.85;3.45;;;;;;;9.07;79.24;96096.11;1698189;84;28312;-87
2022/09/18 05:26:59;;;;;;;11.15;3.70;;;;;;;9.06;79.12;96093.15;1698446;84;25738;-85
2022/09/18 05:29:25;;;;;;;6.15;3.05;;;;;;;9.03;79.07;96096.59;1698499;84;26314;-89
2022/09/18 05:31:52;;;;;;;8.20;3.05;;;;;;;9.05;78.93;96092.85;1698521;84;25947;-88
2022/09/18 05:34:18;;;;;;;5.70;3.20;;;;;;;9.06;78.68;96098.53;1698552;84;25720;-89
2022/09/18 05:36:45;;;;;;;6.60;3.37;;;;;;;9.08;78.68;96101.26;1698474;84;28228;-89
2022/09/18 05:39:12;;;;;;;5.25;2.58;;;;;;;9.09;78.62;96098.86;1698340;84;25700;-88
2022/09/18 05:41:39;;;;;;;6.30;2.65;;;;;;;9.11;78.51;96097.28;1698315;84;25924;-88
2022/09/18 05:44:05;;;;;;;7.53;2.83;;;;;;;9.11;78.21;96100.80;1698605;84;26857;-88
2022/09/18 05:46:32;;;;;;;4.15;2.40;;;;;;;9.15;78.14;96102.51;1698389;84;25810;-88
2022/09/18 05:48:58;;;;;;;6.30;2.50;;;;;;;9.16;77.89;96097.42;1698411;84;27294;-89
2022/09/18 05:51:25;;;;;;;6.05;2.47;;;;;;;9.16;77.84;96104.15;1698428;84;25774;-89
2022/09/18 05:53:51;;;;;;;6.67;2.83;;;;;;;9.20;77.88;96108.81;1698315;84;25822;-86
2022/09/18 05:56:18;;;;;;;6.12;2.47;;;;;;;9.22;78.03;96104.02;1698597;84;26701;-88
2022/09/18 05:58:44;;;;;;;7.08;2.83;;;;;;;9.22;77.74;96097.28;1698595;84;25824;-88
2022/09/18 06:01:13;;;;;;;8.75;2.87;;;;;;;9.25;77.67;96100.05;1698437;84;28153;-87
2022/09/18 06:03:40;;;;;;;4.85;2.85;;;;;;;9.26;77.80;96101.16;1698418;84;25702;-86
2022/09/18 06:06:10;;;;;;;5.35;2.65;;;;;;;9.31;77.91;96099.09;1696439;81;25807;-88
2022/09/18 06:08:35;;;;;;;7.03;2.60;;;;;;;9.35;77.87;96100.27;1695983;84;26122;-87
2022/09/18 06:11:02;;;;;;;7.55;2.98;;;;;;;9.37;77.37;96104.90;1696209;84;25856;-88
2022/09/18 06:13:28;;;;;;;4.92;2.52;;;;;;;9.38;77.18;96107.89;1696270;84;27427;-89
2022/09/18 06:15:56;;;;;;;10.85;2.70;;;;;;;9.36;77.08;96112.16;1696189;84;25758;-90
2022/09/18 06:18:23;;;;;;;4.08;2.60;;;;;;;9.35;76.89;96110.52;1698646;84;26034;-89
2022/09/18 06:20:56;;;;;;;5.03;2.80;;;;;;;9.35;76.67;96112.39;1695890;84;25762;-89
2022/09/18 06:23:27;;;;;;;6.12;2.80;;;;;;;9.30;76.41;96113.61;1699378;84;25725;-90
2022/09/18 06:26:02;;;;;;;7.85;2.90;;;;;;;9.30;76.45;96113.61;1699500;84;27649;-87
2022/09/18 06:28:29;;;;;;;6.50;2.83;;;;;;;9.30;76.23;96114.42;1697341;84;25908;-89
2022/09/18 06:31:01;;;;;;;6.60;2.60;;;;;;;9.31;76.04;96115.25;1696081;84;25280;-87
2022/09/18 06:33:28;;;;;;;7.70;2.87;;;;;;;9.28;75.63;96117.09;1696091;84;26416;-89
2022/09/18 06:35:55;;;;;;;7.83;2.80;;;;;;;9.27;75.56;96120.83;1696276;84;25834;-89
2022/09/18 06:38:21;;;;;;;5.90;2.62;;;;;;;9.30;75.61;96116.30;1695726;84;28178;-89
2022/09/18 06:40:50;;;;;;;6.72;2.98;;;;;;;9.34;75.52;96114.79;1696008;84;25777;-90
2022/09/18 06:43:18;;;;;;;6.78;2.98;;;;;;;9.38;75.50;96117.31;1695562;84;25793;-89
2022/09/18 06:45:51;;;;;;;6.45;2.77;;;;;;;9.46;75.53;96118.30;1695762;84;26076;-89
2022/09/18 06:48:17;;;;;;;8.48;3.70;;;;;;;9.53;75.39;96115.49;1695990;84;25826;-90
2022/09/18 06:50:55;;;;;;;5.83;2.27;;;;;;;9.60;75.40;96117.00;1695780;84;27593;-89
2022/09/18 06:53:23;;;;;;;5.75;2.50;;;;;;;9.62;74.99;96118.94;1694670;84;25953;-90
2022/09/18 06:55:50;;;;;;;3.45;2.22;;;;;;;9.64;74.89;96119.52;1695694;84;25751;-88
2022/09/18 06:58:22;;;;;;;3.62;2.35;;;;;;;9.66;74.81;96119.29;1695954;84;25979;-90
2022/09/18 07:00:47;;;;;;;4.40;2.80;;;;;;;9.71;74.90;96124.24;1694993;84;25755;-89
2022/09/18 07:03:13;;;;;;;5.60;2.62;;;;;;;9.74;74.66;96118.91;1695665;84;26761;-89
2022/09/18 07:05:44;;;;;;;6.03;2.27;;;;;;;9.79;74.75;96119.53;1696844;82;26071;-89
2022/09/18 07:08:11;;;;;;;4.80;2.17;;;;;;;9.85;74.69;96117.25;1698078;83;25822;-89
2022/09/18 07:10:39;;;;;;;3.60;1.80;;;;;;;9.89;74.44;96123.81;1698110;84;26016;-88
2022/09/18 07:13:06;;;;;;;3.42;2.35;;;;;;;9.94;74.22;96119.86;1698031;84;25711;-89
2022/09/18 07:15:33;;;;;;;3.95;2.35;;;;;;;9.98;74.20;96130.46;1697901;84;28035;-89
2022/09/18 07:18:03;;;;;;;4.72;2.35;;;;;;;10.00;74.17;96122.96;1697385;84;25722;-89
2022/09/18 07:20:30;;;;;;;5.40;2.05;;;;;;;10.02;74.05;96119.50;1698120;84;25828;-90
2022/09/18 07:23:00;;;;;;;5.62;2.08;;;;;;;9.94;73.69;96123.90;1697868;84;26833;-88
2022/09/18 07:25:30;;;;;;;6.92;2.83;;;;;;;9.93;73.82;96116.86;1697932;84;25253;-89
2022/09/18 07:28:06;;;;;;;3.42;2.42;;;;;;;9.97;73.66;96123.43;1698099;84;28325;-85
2022/09/18 07:30:35;;;;;;;3.30;2.12;;;;;;;10.01;73.78;96121.37;1698046;83;25893;-89
2022/09/18 07:33:03;;;;;;;3.05;2.37;;;;;;;10.04;73.48;96121.41;1698247;83;25702;-90
2022/09/18 07:35:30;;;;;;;4.03;2.20;;;;;;;10.09;73.47;96116.13;1697752;83;26017;-90
2022/09/18 07:37:59;;;;;;;4.12;1.70;;;;;;;10.14;73.45;96124.86;1698313;84;25240;-89
2022/09/18 07:40:27;;;;;;;2.80;1.82;;;;;;;10.19;73.24;96126.32;1698187;84;27370;-89
2022/09/18 07:43:03;;;;;;;5.67;1.72;;;;;;;10.18;72.99;96125.50;1698061;84;25842;-91
2022/09/18 07:45:30;;;;;;;2.83;1.47;;;;;;;10.22;72.96;96121.27;1698411;84;25736;-88
2022/09/18 07:47:56;;;;;;;4.03;1.52;;;;;;;10.23;72.67;96126.14;1698538;83;25967;-88
2022/09/18 07:50:23;;;;;;;2.37;1.60;;;;;;;10.21;72.38;96127.73;1698279;84;25751;-89
2022/09/18 07:52:55;;;;;;;3.83;1.75;;;;;;;10.18;72.41;96125.50;1698213;83;27440;-90
2022/09/18 07:55:24;;;;;;;4.10;1.95;;;;;;;10.22;72.44;96123.16;1697475;84;26254;-91
2022/09/18 07:58:12;;;;;;;2.47;1.40;;;;;;;10.24;72.54;96125.91;1698054;84;25859;-87
2022/09/18 08:00:39;;;;;;;2.70;1.60;;;;;;;10.29;72.50;96124.64;1697809;84;25981;-88
2022/09/18 08:03:11;;;;;;;3.72;1.80;;;;;;;10.33;72.36;96129.85;1698100;84;25768;-91
2022/09/18 08:05:41;;;;;;;4.67;1.60;;;;;;;10.34;72.18;96136.06;1696449;82;25923;-90
2022/09/18 08:08:12;;;;;;;5.70;1.75;;;;;;;10.32;71.93;96128.73;1698031;84;25837;-88
2022/09/18 08:10:42;;;;;;;2.22;1.55;;;;;;;10.30;71.81;96131.67;1698207;84;25511;-90
2022/09/18 08:13:11;;;;;;;3.67;1.92;;;;;;;10.23;71.55;96128.31;1697850;83;26072;-94
2022/09/18 08:15:40;;;;;;;2.33;1.37;;;;;;;10.20;71.61;96131.48;1698555;83;25850;-94
2022/09/18 08:18:13;;;;;;;6.45;1.80;;;;;;;10.21;71.54;96130.95;1698357;84;27357;-91
2022/09/18 08:20:40;;;;;;;3.62;1.92;;;;;;;10.22;71.51;96129.37;1698473;84;25739;-85
2022/09/18 08:23:08;;;;;;;5.70;2.40;;;;;;;10.23;71.48;96128.84;1699855;84;25282;-92
2022/09/18 08:25:36;;;;;;;6.20;2.37;;;;;;;10.29;71.60;96123.81;1699438;84;25728;-90
2022/09/18 08:28:05;;;;;;;2.92;1.60;;;;;;;10.39;71.76;96126.17;1699718;83;25862;-94
2022/09/18 08:30:34;;;;;;;3.87;1.60;;;;;;;10.50;71.74;96127.73;1696230;84;26094;-94
2022/09/18 08:33:04;;;;;;;2.40;1.40;;;;;;;10.56;71.58;96120.83;1697708;84;25810;-91
2022/09/18 08:35:32;;;;;;;3.27;1.50;;;;;;;10.63;71.55;96117.44;1698212;84;25783;-91
2022/09/18 08:38:01;;;;;;;2.67;1.40;;;;;;;10.70;71.41;96126.22;1697436;84;25982;-90
2022/09/18 08:40:44;;;;;;;2.98;1.57;;;;;;;10.74;71.25;96126.56;1697722;83;25716;-91
2022/09/18 08:44:09;;;;;;;3.95;1.50;;;;;;;10.78;71.15;96127.69;1698279;83;27355;-94
2022/09/18 08:46:40;;;;;;;3.72;1.20;;;;;;;10.85;71.27;96136.47;1698256;84;25856;-90
2022/09/18 08:49:50;;;;;;;2.08;1.17;;;;;;;10.81;70.62;96129.91;1698018;84;25739;-95
2022/09/18 08:52:24;;;;;;;2.25;1.17;;;;;;;10.80;70.53;96130.44;1640588;87;26773;-87
2022/09/18 08:55:26;;;;;;;1.85;1.40;;;;;;;10.77;70.41;96132.80;1692243;84;25969;-93
2022/09/18 08:58:04;;;;;;;1.17;1.03;;;;;;;10.79;70.50;96136.08;1698830;84;28185;-93
2022/09/18 09:00:42;;;;;;;1.10;1.00;;;;;;;10.75;70.38;96140.31;1697898;84;25839;-88
2022/09/18 09:03:32;;;;;;;2.15;1.30;;;;;;;10.76;70.38;96141.95;1698473;84;25735;-92
2022/09/18 09:06:19;;;;;;;1.30;1.00;;;;;;;10.78;70.33;96142.53;1704732;83;26065;-89
2022/09/18 09:09:05;;;;;;;1.42;1.15;;;;;;;10.73;70.49;96137.06;1718564;83;26049;-91
2022/09/18 09:11:46;;;;;;;1.42;1.30;;;;;;;10.76;70.78;96137.91;1718698;82;28015;-89
2022/09/18 09:14:26;;;;;;;1.60;0.90;;;;;;;10.74;71.04;96141.41;1717473;83;25795;-92
2022/09/18 09:17:06;;;;;;;2.00;0.93;;;;;;;11.10;71.55;96134.20;1718473;83;25734;-92
2022/09/18 09:19:44;;;;;;;1.67;1.00;;;;;;;11.38;71.33;96136.50;1718355;83;25985;-92
2022/09/18 09:22:36;;;;;;;2.33;1.25;;;;;;;11.55;70.85;96135.96;1716360;83;25814;-89
2022/09/18 09:25:31;;;;;;;1.98;1.50;;;;;;;11.62;70.36;96136.59;1715699;83;26183;-89
2022/09/18 09:28:04;;;;;;;;;;;;;;;11.67;70.24;96138.03;1720895;83;25799;-90
2022/09/18 09:30:34;;;;;;;2.15;1.57;;;;;;;11.69;69.61;96139.95;1708959;83;25773;-84
2022/09/18 09:33:21;;;;;;;5.25;1.05;;;;;;;11.64;69.63;96143.92;1719044;83;25865;-89
2022/09/18 09:35:54;;;;;;;2.12;1.00;;;;;;;11.49;69.20;96143.69;1718631;83;25778;-87
2022/09/18 09:38:42;;;;;;;1.07;0.62;;;;;;;11.27;69.39;96138.77;1690894;83;28429;-87
2022/09/18 09:41:29;;;;;;;2.35;0.93;;;;;;;11.23;69.58;96141.69;1681715;83;25848;-87
2022/09/18 09:44:27;;;;;;;0.75;0.70;;;;;;;11.33;69.66;96137.80;1718246;82;25866;-87
2022/09/18 09:47:34;;;;;;;0.88;0.80;;;;;;;11.60;69.95;96140.60;1718837;83;25944;-88
2022/09/18 09:50:31;;;;;;;1.05;0.72;;;;;;;11.89;69.71;96137.55;1718351;83;25763;-87
2022/09/18 09:53:06;;;;;;;0.80;0.80;;;;;;;12.45;69.18;96135.52;1659294;86;28058;-89
2022/09/18 09:55:47;;;;;;;1.20;0.57;;;;;;;12.87;68.51;96132.17;1684514;84;25754;-88
2022/09/18 09:58:39;;;;;;;2.45;0.60;;;;;;;12.97;67.64;96138.50;1684253;85;25942;-90
2022/09/18 10:01:16;;;;;;;1.90;1.35;;;;;;;12.97;66.95;96134.97;1684604;85;26112;-89
2022/09/18 10:04:02;;;;;;;1.22;0.70;;;;;;;13.12;66.47;96125.62;1684408;85;25887;-88
2022/09/18 10:06:56;;;;;;;0.93;0.82;;;;;;;13.22;66.26;96134.41;1685843;84;27469;-89
2022/09/18 10:09:42;;;;;;;1.42;0.80;;;;;;;13.19;66.03;96139.80;1688986;84;25799;-89
2022/09/18 10:12:35;;;;;;;1.70;1.30;;;;;;;13.12;65.52;96139.17;1689592;84;25829;-89
2022/09/18 10:15:36;;;;;;;0.93;0.85;;;;;;;13.10;65.47;96135.91;1688167;84;26910;-90
2022/09/18 10:18:08;;;;;;;1.30;1.20;;;;;;;13.05;65.18;96127.72;1689761;84;25626;-87
2022/09/18 10:20:36;;;;;;;1.72;1.07;;;;;;;12.98;65.31;96142.02;1690185;84;27228;-94
2022/09/18 10:23:23;;;;;;;0.98;0.90;;;;;;;13.07;65.33;96132.88;1689712;84;25767;-91
2022/09/18 10:25:57;;;;;;;0.80;0.72;;;;;;;13.29;65.82;96143.94;1689407;84;26394;-92
2022/09/18 10:28:28;;;;;;;0.93;0.80;;;;;;;13.45;65.28;96134.04;1698210;83;26163;-94
2022/09/18 10:31:03;;;;;;;1.67;0.75;;;;;;;13.53;65.13;96132.19;1714516;83;25746;-94
2022/09/18 10:33:49;;;;;;;1.10;1.00;;;;;;;13.68;65.00;96128.77;1706836;84;28002;-91
2022/09/18 10:36:21;;;;;;;1.72;1.00;;;;;;;13.97;65.52;96138.17;1706747;83;26322;-91
2022/09/18 10:38:51;;;;;;;0.93;0.80;;;;;;;14.25;64.70;96137.50;1714467;83;25753;-89
2022/09/18 10:41:34;;;;;;;1.80;1.10;;;;;;;14.42;64.03;96143.55;1712993;83;25863;-91
2022/09/18 10:44:23;;;;;;;1.05;0.88;;;;;;;14.29;63.15;96148.08;1696041;83;25766;-93
2022/09/18 10:47:01;;;;;;;1.37;1.27;;;;;;;14.07;62.83;96145.55;1714448;83;27393;-93
2022/09/18 10:49:33;;;;;;;2.05;0.72;;;;;;;14.03;62.70;96147.14;1713770;82;26545;-89
2022/09/18 10:52:32;;;;;;;1.27;0.80;;;;;;;13.98;62.64;96139.81;1691228;83;25791;-89
2022/09/18 10:55:26;;;;;;;1.00;0.75;;;;;;;13.97;62.56;96141.42;1679373;85;26111;-85
2022/09/18 10:58:07;;;;;;;0.95;0.82;;;;;;;13.94;62.39;96145.47;1710456;83;25747;-94
2022/09/18 11:00:38;;;;;;;3.50;2.30;;;;;;;13.75;61.87;96149.72;1713904;83;28178;-91
2022/09/18 11:03:39;;;;;;;2.37;1.55;;;;;;;13.64;62.17;96142.59;1714447;83;25819;-89
2022/09/18 11:06:17;;;;;;;0.85;0.82;;;;;;;13.74;62.36;96150.78;1712800;81;25863;-93
2022/09/18 11:08:49;;;;;;;1.77;1.12;;;;;;;13.99;62.24;96148.23;1696067;84;25724;-94
2022/09/18 11:11:27;;;;;;;1.20;1.07;;;;;;;14.26;62.19;96143.17;1695903;84;25840;-95
2022/09/18 11:14:07;;;;;;;2.00;1.12;;;;;;;14.55;62.11;96137.63;1696728;84;27419;-92
2022/09/18 11:16:42;;;;;;;1.90;1.25;;;;;;;14.84;62.13;96139.88;1692880;84;25280;-95
2022/09/18 11:19:29;;;;;;;1.20;0.90;;;;;;;14.88;61.26;96143.67;1695845;84;25853;-91
2022/09/18 11:22:01;;;;;;;0.85;0.80;;;;;;;14.81;60.84;96140.41;1689679;84;26055;-92
2022/09/18 11:24:33;;;;;;;1.15;0.82;;;;;;;14.71;60.37;96137.95;1696475;84;25810;-93
2022/09/18 11:27:04;;;;;;;1.17;1.00;;;;;;;14.69;60.30;96154.23;1696399;84;28115;-91
2022/09/18 11:29:38;;;;;;;0.97;0.80;;;;;;;14.54;59.99;96152.28;1694046;84;25834;-91
2022/09/18 11:32:20;;;;;;;1.15;0.72;;;;;;;14.40;59.64;96155.22;1696396;84;25763;-89
2022/09/18 11:34:54;;;;;;;1.75;0.88;;;;;;;14.24;59.46;96152.15;1696575;84;26742;-89
2022/09/18 11:37:41;;;;;;;1.27;0.82;;;;;;;14.12;59.50;96154.27;1697152;84;25952;-91
2022/09/18 11:40:32;;;;;;;1.32;0.85;;;;;;;14.01;59.54;96154.72;1695821;84;25916;-92
2022/09/18 11:43:04;;;;;;;1.60;1.00;;;;;;;13.88;59.95;96164.17;1695800;84;26310;-89
2022/09/18 11:45:45;;;;;;;1.72;1.00;;;;;;;13.73;60.29;96174.92;1695979;84;25861;-85
2022/09/18 11:48:33;;;;;;;1.65;0.55;;;;;;;13.57;60.88;96173.16;1696303;84;25979;-83
2022/09/18 11:51:04;;;;;;;2.00;1.20;;;;;;;13.39;61.06;96177.64;1696246;84;26253;-85
2022/09/18 11:53:41;;;;;;;2.52;1.05;;;;;;;13.15;61.59;96180.70;1696107;84;27430;-85
2022/09/18 11:56:19;;;;;;;2.10;1.65;;;;;;;13.00;62.23;96192.70;1695930;84;25811;-84
2022/09/18 11:59:11;;;;;;;2.20;1.17;;;;;;;12.84;62.43;96200.38;1696066;84;25710;-84
2022/09/18 12:01:46;;;;;;;1.30;0.95;;;;;;;12.73;62.96;96205.41;1694610;84;25997;-84
2022/09/18 12:04:46;;;;;;;1.62;1.20;;;;;;;12.39;63.44;96204.20;1695848;84;25829;-86
2022/09/18 12:07:37;;;;;;;1.92;1.07;;;;;;;11.92;63.77;96186.80;1703902;82;27488;-85
2022/09/18 12:10:39;;;;;;;1.82;1.10;;;;;;;11.86;64.28;96197.53;1718942;83;25699;-86
2022/09/18 12:13:30;;;;;;;2.25;1.10;;;;;;;11.70;64.69;96195.66;1718394;83;25694;-87